sensor_id;sensor_type;location;lat;lon;timestamp;P1;durP1;ratioP1;P2;durP2;ratioP2
59492;SDS011;45497;43.996;22.876;2023-02-11T00:00:19;33.80;;;19.93;;
59492;SDS011;45497;43.996;22.876;2023-02-11T00:02:45;32.60;;;18.23;;
59492;SDS011;45497;43.996;22.876;2023-02-11T00:05:11;26.77;;;14.47;;
59492;SDS011;45497;43.996;22.876;2023-02-11T00:07:36;24.13;;;13.80;;
59492;SDS011;45497;43.996;22.876;2023-02-11T00:10:02;23.90;;;12.73;;
59492;SDS011;45497;43.996;22.876;2023-02-11T00:12:32;21.00;;;12.68;;
59492;SDS011;45497;43.996;22.876;2023-02-11T00:14:58;19.70;;;10.98;;
59492;SDS011;45497;43.996;22.876;2023-02-11T00:17:23;18.27;;;11.00;;
59492;SDS011;45497;43.996;22.876;2023-02-11T00:19:52;20.23;;;11.38;;
59492;SDS011;45497;43.996;22.876;2023-02-11T00:22:18;42.72;;;23.60;;
59492;SDS011;45497;43.996;22.876;2023-02-11T00:24:44;24.33;;;11.37;;
59492;SDS011;45497;43.996;22.876;2023-02-11T00:27:09;21.10;;;11.13;;
59492;SDS011;45497;43.996;22.876;2023-02-11T00:29:35;22.98;;;11.73;;
59492;SDS011;45497;43.996;22.876;2023-02-11T00:32:01;20.48;;;11.07;;
59492;SDS011;45497;43.996;22.876;2023-02-11T00:34:32;19.55;;;10.50;;
59492;SDS011;45497;43.996;22.876;2023-02-11T00:36:58;21.58;;;11.57;;
59492;SDS011;45497;43.996;22.876;2023-02-11T00:39:23;21.67;;;11.23;;
59492;SDS011;45497;43.996;22.876;2023-02-11T00:41:49;25.75;;;13.18;;
59492;SDS011;45497;43.996;22.876;2023-02-11T00:44:15;23.58;;;12.82;;
59492;SDS011;45497;43.996;22.876;2023-02-11T00:46:40;19.63;;;10.37;;
59492;SDS011;45497;43.996;22.876;2023-02-11T00:49:06;23.73;;;12.30;;
59492;SDS011;45497;43.996;22.876;2023-02-11T00:51:31;18.10;;;10.90;;
59492;SDS011;45497;43.996;22.876;2023-02-11T00:53:57;18.53;;;10.83;;
59492;SDS011;45497;43.996;22.876;2023-02-11T00:56:22;20.07;;;10.93;;
59492;SDS011;45497;43.996;22.876;2023-02-11T00:58:48;20.55;;;10.98;;
59492;SDS011;45497;43.996;22.876;2023-02-11T01:01:13;22.03;;;11.63;;
59492;SDS011;45497;43.996;22.876;2023-02-11T01:03:39;19.38;;;11.15;;
59492;SDS011;45497;43.996;22.876;2023-02-11T01:06:05;22.92;;;12.02;;
59492;SDS011;45497;43.996;22.876;2023-02-11T01:08:32;23.60;;;11.80;;
59492;SDS011;45497;43.996;22.876;2023-02-11T01:11:01;18.60;;;10.80;;
59492;SDS011;45497;43.996;22.876;2023-02-11T01:13:31;19.87;;;11.27;;
59492;SDS011;45497;43.996;22.876;2023-02-11T01:15:58;19.42;;;10.18;;
59492;SDS011;45497;43.996;22.876;2023-02-11T01:18:24;24.83;;;11.77;;
59492;SDS011;45497;43.996;22.876;2023-02-11T01:20:50;18.98;;;10.20;;
59492;SDS011;45497;43.996;22.876;2023-02-11T01:23:16;16.45;;;8.88;;
59492;SDS011;45497;43.996;22.876;2023-02-11T01:25:42;21.43;;;10.77;;
59492;SDS011;45497;43.996;22.876;2023-02-11T01:28:12;17.23;;;9.47;;
59492;SDS011;45497;43.996;22.876;2023-02-11T01:30:41;20.48;;;10.82;;
59492;SDS011;45497;43.996;22.876;2023-02-11T01:33:06;20.75;;;11.23;;
59492;SDS011;45497;43.996;22.876;2023-02-11T01:35:32;23.85;;;10.73;;
59492;SDS011;45497;43.996;22.876;2023-02-11T01:37:57;18.73;;;10.10;;
59492;SDS011;45497;43.996;22.876;2023-02-11T01:40:22;18.77;;;10.17;;
59492;SDS011;45497;43.996;22.876;2023-02-11T01:42:48;16.50;;;9.53;;
59492;SDS011;45497;43.996;22.876;2023-02-11T01:48:35;20.38;;;10.23;;
59492;SDS011;45497;43.996;22.876;2023-02-11T01:51:13;21.85;;;10.27;;
59492;SDS011;45497;43.996;22.876;2023-02-11T01:53:42;18.65;;;10.02;;
59492;SDS011;45497;43.996;22.876;2023-02-11T01:56:29;18.60;;;10.07;;
59492;SDS011;45497;43.996;22.876;2023-02-11T01:59:23;21.17;;;10.95;;
59492;SDS011;45497;43.996;22.876;2023-02-11T02:01:57;20.73;;;10.30;;
59492;SDS011;45497;43.996;22.876;2023-02-11T02:04:27;19.30;;;10.55;;
59492;SDS011;45497;43.996;22.876;2023-02-11T02:07:05;22.23;;;11.32;;
59492;SDS011;45497;43.996;22.876;2023-02-11T02:09:43;19.30;;;10.90;;
59492;SDS011;45497;43.996;22.876;2023-02-11T02:12:13;16.75;;;10.40;;
59492;SDS011;45497;43.996;22.876;2023-02-11T02:14:39;18.92;;;10.27;;
59492;SDS011;45497;43.996;22.876;2023-02-11T02:17:06;15.70;;;9.10;;
59492;SDS011;45497;43.996;22.876;2023-02-11T02:25:14;21.85;;;11.48;;
59492;SDS011;45497;43.996;22.876;2023-02-11T02:33:52;17.52;;;9.80;;
59492;SDS011;45497;43.996;22.876;2023-02-11T02:36:36;19.45;;;9.75;;
59492;SDS011;45497;43.996;22.876;2023-02-11T02:39:11;19.27;;;9.57;;
59492;SDS011;45497;43.996;22.876;2023-02-11T02:41:42;19.17;;;9.88;;
59492;SDS011;45497;43.996;22.876;2023-02-11T02:44:09;19.23;;;9.00;;
59492;SDS011;45497;43.996;22.876;2023-02-11T02:46:35;20.52;;;10.60;;
59492;SDS011;45497;43.996;22.876;2023-02-11T02:49:01;18.52;;;10.13;;
59492;SDS011;45497;43.996;22.876;2023-02-11T03:08:38;18.35;;;9.77;;
59492;SDS011;45497;43.996;22.876;2023-02-11T03:11:05;18.60;;;9.48;;
59492;SDS011;45497;43.996;22.876;2023-02-11T03:13:34;20.63;;;10.68;;
59492;SDS011;45497;43.996;22.876;2023-02-11T03:16:09;20.85;;;10.30;;
59492;SDS011;45497;43.996;22.876;2023-02-11T03:18:40;17.65;;;9.63;;
59492;SDS011;45497;43.996;22.876;2023-02-11T03:21:08;20.45;;;10.98;;
59492;SDS011;45497;43.996;22.876;2023-02-11T03:23:39;18.08;;;9.75;;
59492;SDS011;45497;43.996;22.876;2023-02-11T03:26:21;17.42;;;10.10;;
59492;SDS011;45497;43.996;22.876;2023-02-11T03:31:29;18.90;;;9.80;;
59492;SDS011;45497;43.996;22.876;2023-02-11T03:37:08;19.15;;;10.05;;
59492;SDS011;45497;43.996;22.876;2023-02-11T03:39:39;24.48;;;10.77;;
59492;SDS011;45497;43.996;22.876;2023-02-11T03:42:10;20.03;;;10.33;;
59492;SDS011;45497;43.996;22.876;2023-02-11T03:44:39;21.58;;;11.07;;
59492;SDS011;45497;43.996;22.876;2023-02-11T03:47:10;20.17;;;10.65;;
59492;SDS011;45497;43.996;22.876;2023-02-11T03:49:38;20.67;;;10.75;;
59492;SDS011;45497;43.996;22.876;2023-02-11T03:52:07;19.80;;;10.73;;
59492;SDS011;45497;43.996;22.876;2023-02-11T03:54:35;16.50;;;9.87;;
59492;SDS011;45497;43.996;22.876;2023-02-11T03:57:04;17.98;;;10.52;;
59492;SDS011;45497;43.996;22.876;2023-02-11T03:59:29;18.17;;;10.50;;
59492;SDS011;45497;43.996;22.876;2023-02-11T04:01:55;19.17;;;11.23;;
59492;SDS011;45497;43.996;22.876;2023-02-11T04:04:23;19.23;;;10.73;;
59492;SDS011;45497;43.996;22.876;2023-02-11T04:06:49;17.57;;;10.33;;
59492;SDS011;45497;43.996;22.876;2023-02-11T04:09:14;20.43;;;10.60;;
59492;SDS011;45497;43.996;22.876;2023-02-11T04:11:40;21.83;;;11.07;;
59492;SDS011;45497;43.996;22.876;2023-02-11T04:14:05;21.30;;;11.03;;
59492;SDS011;45497;43.996;22.876;2023-02-11T04:16:31;22.00;;;11.73;;
59492;SDS011;45497;43.996;22.876;2023-02-11T04:18:56;19.27;;;11.20;;
59492;SDS011;45497;43.996;22.876;2023-02-11T04:21:22;21.60;;;11.43;;
59492;SDS011;45497;43.996;22.876;2023-02-11T04:23:47;18.70;;;10.90;;
59492;SDS011;45497;43.996;22.876;2023-02-11T04:26:13;21.87;;;11.50;;
59492;SDS011;45497;43.996;22.876;2023-02-11T04:28:38;21.40;;;12.27;;
59492;SDS011;45497;43.996;22.876;2023-02-11T04:31:04;22.08;;;12.20;;
59492;SDS011;45497;43.996;22.876;2023-02-11T04:33:30;19.58;;;11.05;;
59492;SDS011;45497;43.996;22.876;2023-02-11T04:35:55;22.77;;;11.52;;
59492;SDS011;45497;43.996;22.876;2023-02-11T04:38:20;21.25;;;12.05;;
59492;SDS011;45497;43.996;22.876;2023-02-11T04:40:48;21.05;;;11.77;;
59492;SDS011;45497;43.996;22.876;2023-02-11T04:43:14;20.20;;;11.35;;
59492;SDS011;45497;43.996;22.876;2023-02-11T04:45:39;21.15;;;11.60;;
59492;SDS011;45497;43.996;22.876;2023-02-11T04:48:05;21.57;;;10.90;;
59492;SDS011;45497;43.996;22.876;2023-02-11T04:50:30;19.17;;;11.17;;
59492;SDS011;45497;43.996;22.876;2023-02-11T04:52:55;21.07;;;12.00;;
59492;SDS011;45497;43.996;22.876;2023-02-11T04:55:21;20.13;;;10.77;;
59492;SDS011;45497;43.996;22.876;2023-02-11T04:57:48;20.10;;;11.23;;
59492;SDS011;45497;43.996;22.876;2023-02-11T05:00:13;18.13;;;11.50;;
59492;SDS011;45497;43.996;22.876;2023-02-11T05:02:39;18.70;;;10.93;;
59492;SDS011;45497;43.996;22.876;2023-02-11T05:05:05;20.27;;;11.30;;
59492;SDS011;45497;43.996;22.876;2023-02-11T05:07:31;19.73;;;11.00;;
59492;SDS011;45497;43.996;22.876;2023-02-11T05:09:56;21.88;;;12.50;;
59492;SDS011;45497;43.996;22.876;2023-02-11T05:12:23;19.05;;;10.25;;
59492;SDS011;45497;43.996;22.876;2023-02-11T05:14:49;22.50;;;11.02;;
59492;SDS011;45497;43.996;22.876;2023-02-11T05:17:14;20.90;;;11.60;;
59492;SDS011;45497;43.996;22.876;2023-02-11T05:19:40;22.93;;;11.20;;
59492;SDS011;45497;43.996;22.876;2023-02-11T05:22:06;18.33;;;10.35;;
59492;SDS011;45497;43.996;22.876;2023-02-11T05:24:32;19.87;;;10.43;;
59492;SDS011;45497;43.996;22.876;2023-02-11T05:26:58;22.98;;;11.88;;
59492;SDS011;45497;43.996;22.876;2023-02-11T05:29:24;16.98;;;9.65;;
59492;SDS011;45497;43.996;22.876;2023-02-11T05:31:49;16.42;;;9.50;;
59492;SDS011;45497;43.996;22.876;2023-02-11T05:34:14;17.80;;;10.43;;
59492;SDS011;45497;43.996;22.876;2023-02-11T05:36:40;18.47;;;10.73;;
59492;SDS011;45497;43.996;22.876;2023-02-11T05:39:05;18.67;;;10.60;;
59492;SDS011;45497;43.996;22.876;2023-02-11T05:41:31;21.00;;;11.50;;
59492;SDS011;45497;43.996;22.876;2023-02-11T05:43:56;22.87;;;11.83;;
59492;SDS011;45497;43.996;22.876;2023-02-11T05:46:22;23.30;;;12.10;;
59492;SDS011;45497;43.996;22.876;2023-02-11T05:48:47;19.52;;;11.38;;
59492;SDS011;45497;43.996;22.876;2023-02-11T05:51:13;21.65;;;12.35;;
59492;SDS011;45497;43.996;22.876;2023-02-11T05:53:38;20.08;;;11.30;;
59492;SDS011;45497;43.996;22.876;2023-02-11T05:56:04;27.10;;;13.23;;
59492;SDS011;45497;43.996;22.876;2023-02-11T05:58:30;26.15;;;12.85;;
59492;SDS011;45497;43.996;22.876;2023-02-11T06:00:56;26.75;;;13.90;;
59492;SDS011;45497;43.996;22.876;2023-02-11T06:03:22;28.95;;;13.63;;
59492;SDS011;45497;43.996;22.876;2023-02-11T06:05:47;41.90;;;23.83;;
59492;SDS011;45497;43.996;22.876;2023-02-11T06:08:13;25.90;;;13.60;;
59492;SDS011;45497;43.996;22.876;2023-02-11T06:10:38;24.95;;;14.50;;
59492;SDS011;45497;43.996;22.876;2023-02-11T06:13:07;27.02;;;14.32;;
59492;SDS011;45497;43.996;22.876;2023-02-11T06:15:32;22.67;;;13.27;;
59492;SDS011;45497;43.996;22.876;2023-02-11T06:17:58;24.77;;;14.00;;
59492;SDS011;45497;43.996;22.876;2023-02-11T06:20:23;25.45;;;14.18;;
59492;SDS011;45497;43.996;22.876;2023-02-11T06:22:49;26.35;;;14.80;;
59492;SDS011;45497;43.996;22.876;2023-02-11T06:25:14;33.97;;;17.23;;
59492;SDS011;45497;43.996;22.876;2023-02-11T06:27:40;41.70;;;18.25;;
59492;SDS011;45497;43.996;22.876;2023-02-11T06:30:05;29.75;;;14.70;;
59492;SDS011;45497;43.996;22.876;2023-02-11T06:32:31;24.20;;;13.57;;
59492;SDS011;45497;43.996;22.876;2023-02-11T06:34:57;34.67;;;16.40;;
59492;SDS011;45497;43.996;22.876;2023-02-11T06:37:22;35.43;;;17.07;;
59492;SDS011;45497;43.996;22.876;2023-02-11T06:39:48;29.83;;;16.17;;
59492;SDS011;45497;43.996;22.876;2023-02-11T06:42:14;25.60;;;14.00;;
59492;SDS011;45497;43.996;22.876;2023-02-11T06:44:39;24.37;;;14.47;;
59492;SDS011;45497;43.996;22.876;2023-02-11T06:47:05;28.17;;;16.20;;
59492;SDS011;45497;43.996;22.876;2023-02-11T06:49:30;24.88;;;15.52;;
59492;SDS011;45497;43.996;22.876;2023-02-11T06:51:55;28.47;;;17.00;;
59492;SDS011;45497;43.996;22.876;2023-02-11T06:54:21;26.93;;;15.03;;
59492;SDS011;45497;43.996;22.876;2023-02-11T06:56:46;22.37;;;12.67;;
59492;SDS011;45497;43.996;22.876;2023-02-11T06:59:15;23.23;;;13.67;;
59492;SDS011;45497;43.996;22.876;2023-02-11T07:01:43;23.13;;;14.55;;
59492;SDS011;45497;43.996;22.876;2023-02-11T07:04:09;25.57;;;16.47;;
59492;SDS011;45497;43.996;22.876;2023-02-11T07:06:35;24.73;;;14.80;;
59492;SDS011;45497;43.996;22.876;2023-02-11T07:09:02;26.60;;;14.93;;
59492;SDS011;45497;43.996;22.876;2023-02-11T07:11:28;27.92;;;15.57;;
59492;SDS011;45497;43.996;22.876;2023-02-11T07:13:56;28.50;;;14.85;;
59492;SDS011;45497;43.996;22.876;2023-02-11T07:16:32;34.53;;;17.65;;
59492;SDS011;45497;43.996;22.876;2023-02-11T07:18:58;39.20;;;21.00;;
59492;SDS011;45497;43.996;22.876;2023-02-11T07:21:24;32.33;;;17.05;;
59492;SDS011;45497;43.996;22.876;2023-02-11T07:23:50;33.38;;;15.75;;
59492;SDS011;45497;43.996;22.876;2023-02-11T07:26:17;39.30;;;16.95;;
59492;SDS011;45497;43.996;22.876;2023-02-11T07:28:44;26.88;;;13.95;;
59492;SDS011;45497;43.996;22.876;2023-02-11T07:31:14;35.47;;;16.63;;
59492;SDS011;45497;43.996;22.876;2023-02-11T07:33:42;32.63;;;16.67;;
59492;SDS011;45497;43.996;22.876;2023-02-11T07:36:08;31.50;;;15.05;;
59492;SDS011;45497;43.996;22.876;2023-02-11T07:38:35;32.45;;;16.08;;
59492;SDS011;45497;43.996;22.876;2023-02-11T07:41:02;26.95;;;15.18;;
59492;SDS011;45497;43.996;22.876;2023-02-11T07:43:29;24.23;;;13.35;;
59492;SDS011;45497;43.996;22.876;2023-02-11T07:45:55;30.73;;;17.80;;
59492;SDS011;45497;43.996;22.876;2023-02-11T07:48:21;27.25;;;14.90;;
59492;SDS011;45497;43.996;22.876;2023-02-11T07:50:46;33.92;;;17.00;;
59492;SDS011;45497;43.996;22.876;2023-02-11T07:53:12;26.63;;;14.70;;
59492;SDS011;45497;43.996;22.876;2023-02-11T07:55:37;30.30;;;15.57;;
59492;SDS011;45497;43.996;22.876;2023-02-11T07:58:03;33.63;;;18.17;;
59492;SDS011;45497;43.996;22.876;2023-02-11T08:00:28;32.27;;;18.77;;
59492;SDS011;45497;43.996;22.876;2023-02-11T08:02:55;27.80;;;16.23;;
59492;SDS011;45497;43.996;22.876;2023-02-11T08:05:21;29.20;;;15.32;;
59492;SDS011;45497;43.996;22.876;2023-02-11T08:07:49;26.50;;;15.57;;
59492;SDS011;45497;43.996;22.876;2023-02-11T08:10:16;32.22;;;17.88;;
59492;SDS011;45497;43.996;22.876;2023-02-11T08:12:42;26.27;;;15.53;;
59492;SDS011;45497;43.996;22.876;2023-02-11T08:15:07;27.17;;;14.87;;
59492;SDS011;45497;43.996;22.876;2023-02-11T08:17:36;24.47;;;13.30;;
59492;SDS011;45497;43.996;22.876;2023-02-11T08:20:03;27.30;;;13.47;;
59492;SDS011;45497;43.996;22.876;2023-02-11T08:22:33;24.15;;;13.88;;
59492;SDS011;45497;43.996;22.876;2023-02-11T08:24:59;28.67;;;16.02;;
59492;SDS011;45497;43.996;22.876;2023-02-11T08:27:25;28.05;;;14.48;;
59492;SDS011;45497;43.996;22.876;2023-02-11T08:29:51;27.83;;;15.37;;
59492;SDS011;45497;43.996;22.876;2023-02-11T08:32:20;24.40;;;14.40;;
59492;SDS011;45497;43.996;22.876;2023-02-11T08:34:49;26.25;;;15.38;;
59492;SDS011;45497;43.996;22.876;2023-02-11T08:37:16;26.98;;;15.77;;
59492;SDS011;45497;43.996;22.876;2023-02-11T08:39:41;25.83;;;15.00;;
59492;SDS011;45497;43.996;22.876;2023-02-11T08:42:07;26.83;;;14.20;;
59492;SDS011;45497;43.996;22.876;2023-02-11T08:44:32;19.10;;;11.67;;
59492;SDS011;45497;43.996;22.876;2023-02-11T08:46:58;24.93;;;12.10;;
59492;SDS011;45497;43.996;22.876;2023-02-11T08:49:23;17.80;;;10.30;;
59492;SDS011;45497;43.996;22.876;2023-02-11T08:51:49;23.93;;;12.83;;
59492;SDS011;45497;43.996;22.876;2023-02-11T08:54:14;21.10;;;12.80;;
59492;SDS011;45497;43.996;22.876;2023-02-11T08:56:40;19.00;;;10.60;;
59492;SDS011;45497;43.996;22.876;2023-02-11T08:59:06;18.60;;;10.43;;
59492;SDS011;45497;43.996;22.876;2023-02-11T09:01:33;20.70;;;12.13;;
59492;SDS011;45497;43.996;22.876;2023-02-11T09:03:58;23.40;;;13.15;;
59492;SDS011;45497;43.996;22.876;2023-02-11T09:06:25;22.90;;;12.52;;
59492;SDS011;45497;43.996;22.876;2023-02-11T09:08:52;22.73;;;13.02;;
59492;SDS011;45497;43.996;22.876;2023-02-11T09:11:20;26.55;;;14.65;;
59492;SDS011;45497;43.996;22.876;2023-02-11T09:13:49;23.50;;;13.63;;
59492;SDS011;45497;43.996;22.876;2023-02-11T09:16:18;20.77;;;11.43;;
59492;SDS011;45497;43.996;22.876;2023-02-11T09:18:46;19.50;;;10.88;;
59492;SDS011;45497;43.996;22.876;2023-02-11T09:21:13;22.73;;;13.60;;
59492;SDS011;45497;43.996;22.876;2023-02-11T09:23:40;25.83;;;15.90;;
59492;SDS011;45497;43.996;22.876;2023-02-11T09:26:11;27.70;;;14.20;;
59492;SDS011;45497;43.996;22.876;2023-02-11T09:28:41;21.15;;;12.25;;
59492;SDS011;45497;43.996;22.876;2023-02-11T09:31:08;25.80;;;14.90;;
59492;SDS011;45497;43.996;22.876;2023-02-11T09:33:35;23.65;;;14.02;;
59492;SDS011;45497;43.996;22.876;2023-02-11T09:36:03;25.67;;;14.13;;
59492;SDS011;45497;43.996;22.876;2023-02-11T09:38:30;20.73;;;11.65;;
59492;SDS011;45497;43.996;22.876;2023-02-11T09:40:56;27.63;;;16.83;;
59492;SDS011;45497;43.996;22.876;2023-02-11T09:43:23;25.03;;;13.90;;
59492;SDS011;45497;43.996;22.876;2023-02-11T09:46:00;25.55;;;14.00;;
59492;SDS011;45497;43.996;22.876;2023-02-11T09:48:26;25.60;;;15.50;;
59492;SDS011;45497;43.996;22.876;2023-02-11T09:51:02;22.73;;;13.80;;
59492;SDS011;45497;43.996;22.876;2023-02-11T09:53:30;24.25;;;14.10;;
59492;SDS011;45497;43.996;22.876;2023-02-11T09:56:00;24.55;;;14.27;;
59492;SDS011;45497;43.996;22.876;2023-02-11T09:58:31;24.08;;;13.43;;
59492;SDS011;45497;43.996;22.876;2023-02-11T10:01:05;30.35;;;14.20;;
59492;SDS011;45497;43.996;22.876;2023-02-11T10:14:47;23.17;;;13.98;;
59492;SDS011;45497;43.996;22.876;2023-02-11T10:20:40;25.38;;;14.65;;
59492;SDS011;45497;43.996;22.876;2023-02-11T10:23:30;25.30;;;14.77;;
59492;SDS011;45497;43.996;22.876;2023-02-11T10:26:00;23.85;;;14.32;;
59492;SDS011;45497;43.996;22.876;2023-02-11T10:28:32;26.20;;;14.25;;
59492;SDS011;45497;43.996;22.876;2023-02-11T10:31:19;32.03;;;17.23;;
59492;SDS011;45497;43.996;22.876;2023-02-11T10:36:35;24.10;;;14.35;;
59492;SDS011;45497;43.996;22.876;2023-02-11T10:39:20;25.73;;;13.80;;
59492;SDS011;45497;43.996;22.876;2023-02-11T10:44:39;22.02;;;14.57;;
59492;SDS011;45497;43.996;22.876;2023-02-11T10:47:16;18.15;;;11.52;;
59492;SDS011;45497;43.996;22.876;2023-02-11T10:49:46;20.20;;;11.55;;
59492;SDS011;45497;43.996;22.876;2023-02-11T10:52:14;24.43;;;12.00;;
59492;SDS011;45497;43.996;22.876;2023-02-11T10:57:22;20.17;;;12.23;;
59492;SDS011;45497;43.996;22.876;2023-02-11T11:02:42;19.08;;;10.48;;
59492;SDS011;45497;43.996;22.876;2023-02-11T11:05:15;19.48;;;11.32;;
59492;SDS011;45497;43.996;22.876;2023-02-11T11:07:53;20.20;;;10.80;;
59492;SDS011;45497;43.996;22.876;2023-02-11T11:10:39;21.50;;;11.80;;
59492;SDS011;45497;43.996;22.876;2023-02-11T11:13:30;22.15;;;11.90;;
59492;SDS011;45497;43.996;22.876;2023-02-11T11:18:36;23.08;;;12.75;;
59492;SDS011;45497;43.996;22.876;2023-02-11T11:21:19;24.95;;;13.63;;
59492;SDS011;45497;43.996;22.876;2023-02-11T11:23:47;22.85;;;13.73;;
59492;SDS011;45497;43.996;22.876;2023-02-11T11:26:19;16.25;;;10.32;;
59492;SDS011;45497;43.996;22.876;2023-02-11T11:31:15;14.20;;;8.33;;
59492;SDS011;45497;43.996;22.876;2023-02-11T11:33:44;14.02;;;7.88;;
59492;SDS011;45497;43.996;22.876;2023-02-11T11:36:12;16.30;;;7.45;;
59492;SDS011;45497;43.996;22.876;2023-02-11T11:38:54;17.65;;;8.73;;
59492;SDS011;45497;43.996;22.876;2023-02-11T11:46:43;16.23;;;8.45;;
59492;SDS011;45497;43.996;22.876;2023-02-11T11:49:24;19.15;;;10.20;;
59492;SDS011;45497;43.996;22.876;2023-02-11T11:51:57;13.15;;;7.35;;
59492;SDS011;45497;43.996;22.876;2023-02-11T11:54:44;18.70;;;9.03;;
59492;SDS011;45497;43.996;22.876;2023-02-11T11:57:15;16.83;;;7.80;;
59492;SDS011;45497;43.996;22.876;2023-02-11T11:59:46;9.75;;;5.57;;
59492;SDS011;45497;43.996;22.876;2023-02-11T12:05:31;19.70;;;9.43;;
59492;SDS011;45497;43.996;22.876;2023-02-11T12:18:27;10.95;;;6.03;;
59492;SDS011;45497;43.996;22.876;2023-02-11T12:26:43;16.67;;;7.83;;
59492;SDS011;45497;43.996;22.876;2023-02-11T12:32:20;16.63;;;8.70;;
59492;SDS011;45497;43.996;22.876;2023-02-11T12:43:21;15.65;;;8.90;;
59492;SDS011;45497;43.996;22.876;2023-02-11T12:54:12;19.13;;;8.82;;
59492;SDS011;45497;43.996;22.876;2023-02-11T12:57:12;17.73;;;10.25;;
59492;SDS011;45497;43.996;22.876;2023-02-11T13:02:27;20.23;;;10.52;;
59492;SDS011;45497;43.996;22.876;2023-02-11T13:04:57;19.67;;;8.73;;
59492;SDS011;45497;43.996;22.876;2023-02-11T13:07:30;17.85;;;9.13;;
59492;SDS011;45497;43.996;22.876;2023-02-11T13:12:45;17.45;;;10.32;;
59492;SDS011;45497;43.996;22.876;2023-02-11T13:15:33;15.88;;;8.85;;
59492;SDS011;45497;43.996;22.876;2023-02-11T13:18:14;14.30;;;9.00;;
59492;SDS011;45497;43.996;22.876;2023-02-11T13:20:50;17.08;;;9.98;;
59492;SDS011;45497;43.996;22.876;2023-02-11T13:24:00;18.07;;;9.67;;
59492;SDS011;45497;43.996;22.876;2023-02-11T13:26:44;16.00;;;8.63;;
59492;SDS011;45497;43.996;22.876;2023-02-11T13:31:52;19.98;;;9.80;;
59492;SDS011;45497;43.996;22.876;2023-02-11T13:37:13;18.98;;;10.90;;
59492;SDS011;45497;43.996;22.876;2023-02-11T13:39:56;18.30;;;9.27;;
59492;SDS011;45497;43.996;22.876;2023-02-11T13:42:54;22.98;;;10.77;;
59492;SDS011;45497;43.996;22.876;2023-02-11T13:45:29;21.07;;;11.30;;
59492;SDS011;45497;43.996;22.876;2023-02-11T13:48:16;21.48;;;12.25;;
59492;SDS011;45497;43.996;22.876;2023-02-11T13:50:49;28.00;;;14.40;;
59492;SDS011;45497;43.996;22.876;2023-02-11T13:53:17;21.85;;;11.88;;
59492;SDS011;45497;43.996;22.876;2023-02-11T13:55:45;25.13;;;12.80;;
59492;SDS011;45497;43.996;22.876;2023-02-11T14:03:26;23.60;;;13.50;;
59492;SDS011;45497;43.996;22.876;2023-02-11T14:06:14;21.73;;;12.82;;
59492;SDS011;45497;43.996;22.876;2023-02-11T14:14:20;36.38;;;18.75;;
59492;SDS011;45497;43.996;22.876;2023-02-11T14:19:36;31.60;;;17.02;;
59492;SDS011;45497;43.996;22.876;2023-02-11T14:24:48;22.92;;;11.40;;
59492;SDS011;45497;43.996;22.876;2023-02-11T14:27:17;23.63;;;13.30;;
59492;SDS011;45497;43.996;22.876;2023-02-11T14:38:30;17.33;;;10.02;;
59492;SDS011;45497;43.996;22.876;2023-02-11T14:43:49;20.42;;;11.93;;
59492;SDS011;45497;43.996;22.876;2023-02-11T14:46:18;18.58;;;10.63;;
59492;SDS011;45497;43.996;22.876;2023-02-11T14:48:48;27.70;;;13.73;;
59492;SDS011;45497;43.996;22.876;2023-02-11T14:51:18;25.40;;;12.43;;
59492;SDS011;45497;43.996;22.876;2023-02-11T14:53:53;29.00;;;13.70;;
59492;SDS011;45497;43.996;22.876;2023-02-11T14:56:25;24.95;;;13.25;;
59492;SDS011;45497;43.996;22.876;2023-02-11T14:58:55;26.88;;;14.05;;
59492;SDS011;45497;43.996;22.876;2023-02-11T15:03:59;21.02;;;12.32;;
59492;SDS011;45497;43.996;22.876;2023-02-11T15:06:31;23.52;;;13.23;;
59492;SDS011;45497;43.996;22.876;2023-02-11T15:09:00;20.58;;;12.38;;
59492;SDS011;45497;43.996;22.876;2023-02-11T15:11:31;22.60;;;13.30;;
59492;SDS011;45497;43.996;22.876;2023-02-11T15:14:07;21.75;;;11.90;;
59492;SDS011;45497;43.996;22.876;2023-02-11T15:16:36;20.90;;;12.50;;
59492;SDS011;45497;43.996;22.876;2023-02-11T15:19:06;25.87;;;12.90;;
59492;SDS011;45497;43.996;22.876;2023-02-11T15:22:00;22.70;;;12.82;;
59492;SDS011;45497;43.996;22.876;2023-02-11T15:24:30;67.75;;;26.15;;
59492;SDS011;45497;43.996;22.876;2023-02-11T15:29:38;32.03;;;14.80;;
59492;SDS011;45497;43.996;22.876;2023-02-11T15:34:33;53.00;;;23.90;;
59492;SDS011;45497;43.996;22.876;2023-02-11T15:36:59;34.20;;;17.52;;
59492;SDS011;45497;43.996;22.876;2023-02-11T15:39:30;28.70;;;17.63;;
59492;SDS011;45497;43.996;22.876;2023-02-11T15:41:56;27.20;;;16.17;;
59492;SDS011;45497;43.996;22.876;2023-02-11T15:44:40;24.75;;;15.30;;
59492;SDS011;45497;43.996;22.876;2023-02-11T15:47:08;38.90;;;22.73;;
59492;SDS011;45497;43.996;22.876;2023-02-11T15:49:34;27.87;;;17.07;;
59492;SDS011;45497;43.996;22.876;2023-02-11T15:52:00;30.77;;;18.73;;
59492;SDS011;45497;43.996;22.876;2023-02-11T15:54:27;34.53;;;19.73;;
59492;SDS011;45497;43.996;22.876;2023-02-11T15:57:00;38.28;;;21.63;;
59492;SDS011;45497;43.996;22.876;2023-02-11T15:59:35;32.60;;;19.63;;
59492;SDS011;45497;43.996;22.876;2023-02-11T16:02:07;38.22;;;22.52;;
59492;SDS011;45497;43.996;22.876;2023-02-11T16:04:46;38.42;;;21.83;;
59492;SDS011;45497;43.996;22.876;2023-02-11T16:07:40;36.10;;;18.80;;
59492;SDS011;45497;43.996;22.876;2023-02-11T16:10:17;30.63;;;17.27;;
59492;SDS011;45497;43.996;22.876;2023-02-11T16:15:28;25.33;;;15.38;;
59492;SDS011;45497;43.996;22.876;2023-02-11T16:18:11;26.48;;;17.48;;
59492;SDS011;45497;43.996;22.876;2023-02-11T16:20:38;28.70;;;16.77;;
59492;SDS011;45497;43.996;22.876;2023-02-11T16:23:05;45.93;;;26.13;;
59492;SDS011;45497;43.996;22.876;2023-02-11T16:25:33;25.20;;;15.82;;
59492;SDS011;45497;43.996;22.876;2023-02-11T16:27:59;43.30;;;27.38;;
59492;SDS011;45497;43.996;22.876;2023-02-11T16:32:53;128.45;;;75.93;;
59492;SDS011;45497;43.996;22.876;2023-02-11T16:35:19;42.85;;;24.48;;
59492;SDS011;45497;43.996;22.876;2023-02-11T16:37:44;32.92;;;19.83;;
59492;SDS011;45497;43.996;22.876;2023-02-11T16:40:10;41.20;;;25.50;;
59492;SDS011;45497;43.996;22.876;2023-02-11T16:42:36;55.85;;;32.45;;
59492;SDS011;45497;43.996;22.876;2023-02-11T16:45:01;66.35;;;40.72;;
59492;SDS011;45497;43.996;22.876;2023-02-11T16:47:27;69.90;;;40.60;;
59492;SDS011;45497;43.996;22.876;2023-02-11T16:49:55;41.17;;;26.98;;
59492;SDS011;45497;43.996;22.876;2023-02-11T16:52:22;31.13;;;20.83;;
59492;SDS011;45497;43.996;22.876;2023-02-11T16:54:48;34.78;;;24.25;;
59492;SDS011;45497;43.996;22.876;2023-02-11T16:57:18;38.53;;;23.30;;
59492;SDS011;45497;43.996;22.876;2023-02-11T16:59:46;40.03;;;28.00;;
59492;SDS011;45497;43.996;22.876;2023-02-11T17:04:49;41.00;;;25.58;;
59492;SDS011;45497;43.996;22.876;2023-02-11T17:07:18;58.15;;;34.33;;
59492;SDS011;45497;43.996;22.876;2023-02-11T17:09:44;41.78;;;24.30;;